Terminal Aerodrome Forecast
Issued by NWS Cleveland, OH

Home | Current Version | Previous Version | Graphics & Text | Print | Product List | Glossary Off
Versions: 1 2 3 4 5 6 7 8 9 10 11 12 13

000
FTUS41 KCLE 302300
TAFMFD
TAF
KMFD 302327Z 3100/3124 VRB03KT P6SM BKN040 OVC100
     FM311500 24010KT 5SM -SHRA BR OVC025
     FM312000 30010KT 2SM -RA BR BKN009 OVC015
     FM312300 35010KT 2SM -RA BR BKN009 OVC015=

USA.gov is the U.S. government's official web portal to all federal, state and local government web resources and services.